sensor_id;sensor_type;location;lat;lon;timestamp;temperature;humidity
43346;DHT22;28937;51.160;4.146;2022-09-09T00:09:27;21.30;90.50
43346;DHT22;28937;51.160;4.146;2022-09-09T00:12:13;21.30;90.30
43346;DHT22;28937;51.160;4.146;2022-09-09T00:14:54;21.30;90.50
43346;DHT22;28937;51.160;4.146;2022-09-09T00:17:26;21.30;90.50
43346;DHT22;28937;51.160;4.146;2022-09-09T00:19:58;21.30;90.70
43346;DHT22;28937;51.160;4.146;2022-09-09T00:22:28;21.30;90.50
43346;DHT22;28937;51.160;4.146;2022-09-09T00:25:08;21.20;90.50
43346;DHT22;28937;51.160;4.146;2022-09-09T00:27:44;21.20;90.60
43346;DHT22;28937;51.160;4.146;2022-09-09T00:30:27;21.20;90.60
43346;DHT22;28937;51.160;4.146;2022-09-09T00:33:01;21.20;90.60
43346;DHT22;28937;51.160;4.146;2022-09-09T00:35:37;21.20;90.50
43346;DHT22;28937;51.160;4.146;2022-09-09T00:38:12;21.20;90.60
43346;DHT22;28937;51.160;4.146;2022-09-09T00:57:25;21.00;90.60
43346;DHT22;28937;51.160;4.146;2022-09-09T01:00:14;21.00;90.60
43346;DHT22;28937;51.160;4.146;2022-09-09T01:05:46;21.00;90.60
43346;DHT22;28937;51.160;4.146;2022-09-09T01:10:50;21.10;90.50
43346;DHT22;28937;51.160;4.146;2022-09-09T01:13:30;21.00;90.50
43346;DHT22;28937;51.160;4.146;2022-09-09T01:15:58;21.00;90.50
43346;DHT22;28937;51.160;4.146;2022-09-09T01:18:34;21.00;90.50
43346;DHT22;28937;51.160;4.146;2022-09-09T01:21:22;20.90;90.50
43346;DHT22;28937;51.160;4.146;2022-09-09T01:24:27;20.90;90.60
43346;DHT22;28937;51.160;4.146;2022-09-09T01:27:02;20.90;90.60
43346;DHT22;28937;51.160;4.146;2022-09-09T01:29:31;20.90;90.60
43346;DHT22;28937;51.160;4.146;2022-09-09T01:32:01;20.90;90.60
43346;DHT22;28937;51.160;4.146;2022-09-09T01:34:37;20.90;90.60
43346;DHT22;28937;51.160;4.146;2022-09-09T01:37:06;20.80;90.60
43346;DHT22;28937;51.160;4.146;2022-09-09T01:39:33;20.80;90.60
43346;DHT22;28937;51.160;4.146;2022-09-09T01:42:00;20.80;90.60
43346;DHT22;28937;51.160;4.146;2022-09-09T01:44:27;20.90;90.60
43346;DHT22;28937;51.160;4.146;2022-09-09T01:46:53;20.80;90.60
43346;DHT22;28937;51.160;4.146;2022-09-09T01:49:19;20.80;90.60
43346;DHT22;28937;51.160;4.146;2022-09-09T01:51:48;20.80;90.60
43346;DHT22;28937;51.160;4.146;2022-09-09T01:54:14;20.80;90.60
43346;DHT22;28937;51.160;4.146;2022-09-09T02:07:10;20.70;90.70
43346;DHT22;28937;51.160;4.146;2022-09-09T02:09:41;20.70;90.70
43346;DHT22;28937;51.160;4.146;2022-09-09T02:12:14;20.70;90.80
43346;DHT22;28937;51.160;4.146;2022-09-09T02:14:47;20.70;90.80
43346;DHT22;28937;51.160;4.146;2022-09-09T02:17:19;20.60;90.80
43346;DHT22;28937;51.160;4.146;2022-09-09T02:20:00;20.70;90.80
43346;DHT22;28937;51.160;4.146;2022-09-09T02:22:28;20.70;90.90
43346;DHT22;28937;51.160;4.146;2022-09-09T02:24:57;20.70;90.70
43346;DHT22;28937;51.160;4.146;2022-09-09T02:27:24;20.60;90.90
43346;DHT22;28937;51.160;4.146;2022-09-09T02:29:51;20.70;90.80
43346;DHT22;28937;51.160;4.146;2022-09-09T02:32:21;20.70;91.00
43346;DHT22;28937;51.160;4.146;2022-09-09T02:34:50;20.60;91.00
43346;DHT22;28937;51.160;4.146;2022-09-09T02:37:21;20.60;91.10
43346;DHT22;28937;51.160;4.146;2022-09-09T02:39:50;20.60;91.10
43346;DHT22;28937;51.160;4.146;2022-09-09T02:42:15;20.60;91.20
43346;DHT22;28937;51.160;4.146;2022-09-09T02:44:41;20.70;91.10
43346;DHT22;28937;51.160;4.146;2022-09-09T02:47:16;20.60;91.10
43346;DHT22;28937;51.160;4.146;2022-09-09T02:49:56;20.60;91.20
43346;DHT22;28937;51.160;4.146;2022-09-09T02:55:39;20.60;91.40
43346;DHT22;28937;51.160;4.146;2022-09-09T02:58:08;20.50;91.30
43346;DHT22;28937;51.160;4.146;2022-09-09T03:00:35;20.70;91.30
43346;DHT22;28937;51.160;4.146;2022-09-09T03:03:06;20.50;91.50
43346;DHT22;28937;51.160;4.146;2022-09-09T03:05:32;20.60;91.40
43346;DHT22;28937;51.160;4.146;2022-09-09T03:07:58;20.60;91.40
43346;DHT22;28937;51.160;4.146;2022-09-09T03:10:23;20.50;91.50
43346;DHT22;28937;51.160;4.146;2022-09-09T03:12:49;20.50;91.60
43346;DHT22;28937;51.160;4.146;2022-09-09T03:15:15;20.50;91.60
43346;DHT22;28937;51.160;4.146;2022-09-09T03:17:41;20.50;91.60
43346;DHT22;28937;51.160;4.146;2022-09-09T03:20:07;20.50;91.60
43346;DHT22;28937;51.160;4.146;2022-09-09T03:22:34;20.50;91.50
43346;DHT22;28937;51.160;4.146;2022-09-09T03:25:00;20.60;91.50
43346;DHT22;28937;51.160;4.146;2022-09-09T03:27:25;20.60;91.40
43346;DHT22;28937;51.160;4.146;2022-09-09T03:29:51;20.60;91.40
43346;DHT22;28937;51.160;4.146;2022-09-09T03:32:17;20.60;91.40
43346;DHT22;28937;51.160;4.146;2022-09-09T03:34:43;20.50;91.60
43346;DHT22;28937;51.160;4.146;2022-09-09T03:37:09;20.50;91.60
43346;DHT22;28937;51.160;4.146;2022-09-09T03:39:35;20.60;91.50
43346;DHT22;28937;51.160;4.146;2022-09-09T03:42:00;20.50;91.60
43346;DHT22;28937;51.160;4.146;2022-09-09T03:44:29;20.50;91.60
43346;DHT22;28937;51.160;4.146;2022-09-09T03:46:55;20.40;91.70
43346;DHT22;28937;51.160;4.146;2022-09-09T03:49:21;20.30;91.80
43346;DHT22;28937;51.160;4.146;2022-09-09T03:51:48;20.40;91.70
43346;DHT22;28937;51.160;4.146;2022-09-09T03:54:13;20.40;91.80
43346;DHT22;28937;51.160;4.146;2022-09-09T03:56:39;20.50;91.60
43346;DHT22;28937;51.160;4.146;2022-09-09T03:59:07;20.40;91.60
43346;DHT22;28937;51.160;4.146;2022-09-09T04:01:34;20.40;91.80
43346;DHT22;28937;51.160;4.146;2022-09-09T04:04:00;20.50;91.60
43346;DHT22;28937;51.160;4.146;2022-09-09T04:06:27;20.50;91.60
43346;DHT22;28937;51.160;4.146;2022-09-09T04:08:53;20.50;91.60
43346;DHT22;28937;51.160;4.146;2022-09-09T04:11:19;20.50;91.70
43346;DHT22;28937;51.160;4.146;2022-09-09T04:13:45;20.40;91.70
43346;DHT22;28937;51.160;4.146;2022-09-09T04:16:12;20.40;91.70
43346;DHT22;28937;51.160;4.146;2022-09-09T04:18:41;20.40;91.80
43346;DHT22;28937;51.160;4.146;2022-09-09T04:21:08;20.50;91.70
43346;DHT22;28937;51.160;4.146;2022-09-09T04:23:33;20.40;91.60
43346;DHT22;28937;51.160;4.146;2022-09-09T04:26:01;20.40;91.60
43346;DHT22;28937;51.160;4.146;2022-09-09T04:28:29;20.30;91.90
43346;DHT22;28937;51.160;4.146;2022-09-09T04:30:55;20.30;91.80
43346;DHT22;28937;51.160;4.146;2022-09-09T04:33:24;20.30;91.80
43346;DHT22;28937;51.160;4.146;2022-09-09T04:35:52;20.30;91.80
43346;DHT22;28937;51.160;4.146;2022-09-09T04:38:19;20.50;91.60
43346;DHT22;28937;51.160;4.146;2022-09-09T04:40:49;20.30;91.80
43346;DHT22;28937;51.160;4.146;2022-09-09T04:43:16;20.30;91.70
43346;DHT22;28937;51.160;4.146;2022-09-09T04:45:43;20.50;91.60
43346;DHT22;28937;51.160;4.146;2022-09-09T04:48:09;20.40;91.80
43346;DHT22;28937;51.160;4.146;2022-09-09T04:50:35;20.30;91.70
43346;DHT22;28937;51.160;4.146;2022-09-09T04:53:04;20.40;91.70
43346;DHT22;28937;51.160;4.146;2022-09-09T04:55:30;20.30;91.80
43346;DHT22;28937;51.160;4.146;2022-09-09T04:57:56;20.30;91.90
43346;DHT22;28937;51.160;4.146;2022-09-09T05:00:23;20.20;92.00
43346;DHT22;28937;51.160;4.146;2022-09-09T05:02:48;20.40;91.80
43346;DHT22;28937;51.160;4.146;2022-09-09T05:05:14;20.30;91.90
43346;DHT22;28937;51.160;4.146;2022-09-09T05:07:40;20.30;91.80
43346;DHT22;28937;51.160;4.146;2022-09-09T05:10:05;20.30;91.80
43346;DHT22;28937;51.160;4.146;2022-09-09T05:12:31;20.20;92.20
43346;DHT22;28937;51.160;4.146;2022-09-09T05:14:57;20.30;91.80
43346;DHT22;28937;51.160;4.146;2022-09-09T05:17:23;20.40;91.80
43346;DHT22;28937;51.160;4.146;2022-09-09T05:19:49;20.20;92.00
43346;DHT22;28937;51.160;4.146;2022-09-09T05:22:19;20.10;92.30
43346;DHT22;28937;51.160;4.146;2022-09-09T05:24:45;20.20;92.20
43346;DHT22;28937;51.160;4.146;2022-09-09T05:27:11;20.20;92.20
43346;DHT22;28937;51.160;4.146;2022-09-09T05:29:38;20.40;92.00
43346;DHT22;28937;51.160;4.146;2022-09-09T05:32:04;20.30;92.00
43346;DHT22;28937;51.160;4.146;2022-09-09T05:34:30;20.50;91.90
43346;DHT22;28937;51.160;4.146;2022-09-09T05:36:55;20.40;92.00
43346;DHT22;28937;51.160;4.146;2022-09-09T05:39:21;20.60;91.90
43346;DHT22;28937;51.160;4.146;2022-09-09T05:41:46;20.90;91.70
43346;DHT22;28937;51.160;4.146;2022-09-09T05:44:12;21.10;91.40
43346;DHT22;28937;51.160;4.146;2022-09-09T05:46:39;21.10;91.50
43346;DHT22;28937;51.160;4.146;2022-09-09T05:49:05;21.20;91.40
43346;DHT22;28937;51.160;4.146;2022-09-09T05:51:31;21.20;91.50
43346;DHT22;28937;51.160;4.146;2022-09-09T05:53:56;21.30;91.40
43346;DHT22;28937;51.160;4.146;2022-09-09T05:56:27;21.30;91.50
43346;DHT22;28937;51.160;4.146;2022-09-09T05:58:54;21.30;91.30
43346;DHT22;28937;51.160;4.146;2022-09-09T06:01:25;21.50;91.30
43346;DHT22;28937;51.160;4.146;2022-09-09T06:03:52;21.50;91.10
43346;DHT22;28937;51.160;4.146;2022-09-09T06:06:24;21.50;91.00
43346;DHT22;28937;51.160;4.146;2022-09-09T06:08:52;21.50;90.90
43346;DHT22;28937;51.160;4.146;2022-09-09T06:11:24;21.50;90.80
43346;DHT22;28937;51.160;4.146;2022-09-09T06:13:50;21.60;90.80
43346;DHT22;28937;51.160;4.146;2022-09-09T06:16:23;21.70;90.60
43346;DHT22;28937;51.160;4.146;2022-09-09T06:18:49;21.70;90.70
43346;DHT22;28937;51.160;4.146;2022-09-09T06:21:18;21.70;90.70
43346;DHT22;28937;51.160;4.146;2022-09-09T06:23:44;21.60;90.80
43346;DHT22;28937;51.160;4.146;2022-09-09T06:26:12;21.70;90.60
43346;DHT22;28937;51.160;4.146;2022-09-09T06:28:38;21.70;90.60
43346;DHT22;28937;51.160;4.146;2022-09-09T06:31:09;21.70;90.50
43346;DHT22;28937;51.160;4.146;2022-09-09T06:33:37;21.80;90.50
43346;DHT22;28937;51.160;4.146;2022-09-09T06:36:11;21.80;90.50
43346;DHT22;28937;51.160;4.146;2022-09-09T06:38:37;21.80;90.40
43346;DHT22;28937;51.160;4.146;2022-09-09T06:41:02;21.90;90.40
43346;DHT22;28937;51.160;4.146;2022-09-09T06:43:29;21.90;90.20
43346;DHT22;28937;51.160;4.146;2022-09-09T06:46:00;21.80;90.20
43346;DHT22;28937;51.160;4.146;2022-09-09T06:48:26;21.90;90.30
43346;DHT22;28937;51.160;4.146;2022-09-09T06:53:39;21.80;90.30
43346;DHT22;28937;51.160;4.146;2022-09-09T06:58:40;21.90;90.30
43346;DHT22;28937;51.160;4.146;2022-09-09T07:01:14;21.90;90.30
43346;DHT22;28937;51.160;4.146;2022-09-09T07:03:41;21.90;90.40
43346;DHT22;28937;51.160;4.146;2022-09-09T07:06:09;21.90;90.60
43346;DHT22;28937;51.160;4.146;2022-09-09T07:08:39;21.90;90.60
43346;DHT22;28937;51.160;4.146;2022-09-09T07:11:06;22.00;90.50
43346;DHT22;28937;51.160;4.146;2022-09-09T07:13:33;22.00;90.30
43346;DHT22;28937;51.160;4.146;2022-09-09T07:16:25;21.90;90.40
43346;DHT22;28937;51.160;4.146;2022-09-09T07:18:52;21.90;90.40
43346;DHT22;28937;51.160;4.146;2022-09-09T07:21:18;22.00;90.40
43346;DHT22;28937;51.160;4.146;2022-09-09T07:23:44;21.80;90.50
43346;DHT22;28937;51.160;4.146;2022-09-09T07:26:15;21.80;90.60
43346;DHT22;28937;51.160;4.146;2022-09-09T07:28:42;21.90;90.50
43346;DHT22;28937;51.160;4.146;2022-09-09T07:31:13;22.00;90.30
43346;DHT22;28937;51.160;4.146;2022-09-09T07:33:41;21.80;90.70
43346;DHT22;28937;51.160;4.146;2022-09-09T07:36:09;21.90;90.70
43346;DHT22;28937;51.160;4.146;2022-09-09T07:38:45;21.90;90.40
43346;DHT22;28937;51.160;4.146;2022-09-09T07:41:19;21.90;90.60
43346;DHT22;28937;51.160;4.146;2022-09-09T07:43:47;21.90;90.50
43346;DHT22;28937;51.160;4.146;2022-09-09T07:46:14;21.90;90.50
43346;DHT22;28937;51.160;4.146;2022-09-09T07:48:49;22.00;90.40
43346;DHT22;28937;51.160;4.146;2022-09-09T07:51:20;21.90;90.50
43346;DHT22;28937;51.160;4.146;2022-09-09T07:53:50;22.10;90.30
43346;DHT22;28937;51.160;4.146;2022-09-09T07:56:18;22.10;90.30
43346;DHT22;28937;51.160;4.146;2022-09-09T07:58:47;22.10;90.20
43346;DHT22;28937;51.160;4.146;2022-09-09T08:01:21;22.00;90.70
43346;DHT22;28937;51.160;4.146;2022-09-09T08:03:56;22.10;90.40
43346;DHT22;28937;51.160;4.146;2022-09-09T08:06:25;22.20;90.40
43346;DHT22;28937;51.160;4.146;2022-09-09T08:08:52;22.10;90.40
43346;DHT22;28937;51.160;4.146;2022-09-09T08:11:20;22.10;90.40
43346;DHT22;28937;51.160;4.146;2022-09-09T08:13:49;22.10;90.40
43346;DHT22;28937;51.160;4.146;2022-09-09T08:16:26;22.20;90.40
43346;DHT22;28937;51.160;4.146;2022-09-09T08:18:53;22.10;90.30
43346;DHT22;28937;51.160;4.146;2022-09-09T08:21:24;22.20;90.20
43346;DHT22;28937;51.160;4.146;2022-09-09T08:23:52;22.20;90.10
43346;DHT22;28937;51.160;4.146;2022-09-09T08:26:26;22.20;90.20
43346;DHT22;28937;51.160;4.146;2022-09-09T08:28:54;22.20;90.10
43346;DHT22;28937;51.160;4.146;2022-09-09T08:31:31;22.20;90.20
43346;DHT22;28937;51.160;4.146;2022-09-09T08:33:58;22.20;90.20
43346;DHT22;28937;51.160;4.146;2022-09-09T08:36:33;22.20;90.10
43346;DHT22;28937;51.160;4.146;2022-09-09T08:38:59;22.30;90.10
43346;DHT22;28937;51.160;4.146;2022-09-09T08:47:54;22.10;90.20
43346;DHT22;28937;51.160;4.146;2022-09-09T08:50:34;22.10;90.30
43346;DHT22;28937;51.160;4.146;2022-09-09T08:53:17;22.20;90.10
43346;DHT22;28937;51.160;4.146;2022-09-09T08:56:04;22.20;90.10
43346;DHT22;28937;51.160;4.146;2022-09-09T08:58:34;22.10;90.20
43346;DHT22;28937;51.160;4.146;2022-09-09T09:04:22;22.20;90.20
43346;DHT22;28937;51.160;4.146;2022-09-09T09:07:10;22.20;90.40
43346;DHT22;28937;51.160;4.146;2022-09-09T09:12:20;22.30;90.20
43346;DHT22;28937;51.160;4.146;2022-09-09T09:14:48;22.20;90.40
43346;DHT22;28937;51.160;4.146;2022-09-09T09:17:21;22.20;90.10
43346;DHT22;28937;51.160;4.146;2022-09-09T09:19:49;22.20;90.10
43346;DHT22;28937;51.160;4.146;2022-09-09T09:22:22;22.30;90.00
43346;DHT22;28937;51.160;4.146;2022-09-09T09:25:01;22.30;89.90
43346;DHT22;28937;51.160;4.146;2022-09-09T09:27:42;22.30;89.70
43346;DHT22;28937;51.160;4.146;2022-09-09T09:30:14;22.30;90.10
43346;DHT22;28937;51.160;4.146;2022-09-09T09:32:47;22.20;90.00
43346;DHT22;28937;51.160;4.146;2022-09-09T09:35:14;22.20;90.00
43346;DHT22;28937;51.160;4.146;2022-09-09T09:37:41;22.10;89.90
43346;DHT22;28937;51.160;4.146;2022-09-09T09:40:17;22.20;90.00
43346;DHT22;28937;51.160;4.146;2022-09-09T09:43:00;22.30;89.90
43346;DHT22;28937;51.160;4.146;2022-09-09T09:45:41;22.20;90.00
43346;DHT22;28937;51.160;4.146;2022-09-09T09:48:10;22.30;89.90
43346;DHT22;28937;51.160;4.146;2022-09-09T09:51:07;22.30;89.80
43346;DHT22;28937;51.160;4.146;2022-09-09T09:53:36;22.30;89.80
43346;DHT22;28937;51.160;4.146;2022-09-09T09:56:08;22.40;89.70
43346;DHT22;28937;51.160;4.146;2022-09-09T10:01:24;22.30;90.00
43346;DHT22;28937;51.160;4.146;2022-09-09T10:03:52;22.20;90.10
43346;DHT22;28937;51.160;4.146;2022-09-09T10:06:35;22.30;90.00
43346;DHT22;28937;51.160;4.146;2022-09-09T10:09:04;22.30;90.00
43346;DHT22;28937;51.160;4.146;2022-09-09T10:11:45;22.30;90.00
43346;DHT22;28937;51.160;4.146;2022-09-09T10:14:24;22.40;90.00
43346;DHT22;28937;51.160;4.146;2022-09-09T10:17:29;22.30;90.00
43346;DHT22;28937;51.160;4.146;2022-09-09T10:20:21;22.30;90.10
43346;DHT22;28937;51.160;4.146;2022-09-09T10:23:02;22.30;90.00
43346;DHT22;28937;51.160;4.146;2022-09-09T10:25:43;22.40;90.00
43346;DHT22;28937;51.160;4.146;2022-09-09T10:31:23;22.40;89.90
43346;DHT22;28937;51.160;4.146;2022-09-09T10:36:48;22.00;90.40
43346;DHT22;28937;51.160;4.146;2022-09-09T10:47:39;21.90;90.70
43346;DHT22;28937;51.160;4.146;2022-09-09T10:55:53;21.90;90.70
43346;DHT22;28937;51.160;4.146;2022-09-09T10:58:28;21.80;90.60
43346;DHT22;28937;51.160;4.146;2022-09-09T11:01:01;21.90;90.60
43346;DHT22;28937;51.160;4.146;2022-09-09T11:03:29;21.80;90.60
43346;DHT22;28937;51.160;4.146;2022-09-09T11:06:02;22.00;90.50
43346;DHT22;28937;51.160;4.146;2022-09-09T11:08:31;21.90;90.60
43346;DHT22;28937;51.160;4.146;2022-09-09T11:11:02;22.10;90.60
43346;DHT22;28937;51.160;4.146;2022-09-09T11:13:55;22.20;90.30
43346;DHT22;28937;51.160;4.146;2022-09-09T11:16:49;22.30;90.20
43346;DHT22;28937;51.160;4.146;2022-09-09T11:19:41;22.30;90.10
43346;DHT22;28937;51.160;4.146;2022-09-09T11:22:31;22.30;90.10
43346;DHT22;28937;51.160;4.146;2022-09-09T11:25:21;22.40;89.90
43346;DHT22;28937;51.160;4.146;2022-09-09T11:28:12;22.40;90.00
43346;DHT22;28937;51.160;4.146;2022-09-09T11:33:42;22.50;90.50
43346;DHT22;28937;51.160;4.146;2022-09-09T11:38:56;22.50;90.80
43346;DHT22;28937;51.160;4.146;2022-09-09T11:41:33;22.60;90.70
43346;DHT22;28937;51.160;4.146;2022-09-09T11:43:59;22.60;90.80
43346;DHT22;28937;51.160;4.146;2022-09-09T11:46:37;22.70;90.80
43346;DHT22;28937;51.160;4.146;2022-09-09T11:49:05;22.70;90.70
43346;DHT22;28937;51.160;4.146;2022-09-09T11:51:33;22.70;90.90
43346;DHT22;28937;51.160;4.146;2022-09-09T11:54:29;22.70;90.70
43346;DHT22;28937;51.160;4.146;2022-09-09T11:56:55;22.80;90.70
43346;DHT22;28937;51.160;4.146;2022-09-09T11:59:30;22.90;90.80
43346;DHT22;28937;51.160;4.146;2022-09-09T12:02:00;22.90;90.70
43346;DHT22;28937;51.160;4.146;2022-09-09T12:05:05;22.90;90.60
43346;DHT22;28937;51.160;4.146;2022-09-09T12:07:38;22.90;90.60
43346;DHT22;28937;51.160;4.146;2022-09-09T12:10:22;22.90;90.50
43346;DHT22;28937;51.160;4.146;2022-09-09T12:12:49;22.90;90.40
43346;DHT22;28937;51.160;4.146;2022-09-09T12:15:21;23.00;90.30
43346;DHT22;28937;51.160;4.146;2022-09-09T12:17:55;23.00;90.20
43346;DHT22;28937;51.160;4.146;2022-09-09T12:20:49;23.00;90.10
43346;DHT22;28937;51.160;4.146;2022-09-09T12:28:44;23.00;90.10
43346;DHT22;28937;51.160;4.146;2022-09-09T12:31:24;23.00;90.00
43346;DHT22;28937;51.160;4.146;2022-09-09T12:33:51;23.10;89.90
43346;DHT22;28937;51.160;4.146;2022-09-09T12:36:38;23.10;89.90
43346;DHT22;28937;51.160;4.146;2022-09-09T12:39:27;23.10;89.80
43346;DHT22;28937;51.160;4.146;2022-09-09T12:41:54;23.10;89.60
43346;DHT22;28937;51.160;4.146;2022-09-09T12:44:24;23.10;89.40
43346;DHT22;28937;51.160;4.146;2022-09-09T12:46:51;23.10;89.80
43346;DHT22;28937;51.160;4.146;2022-09-09T12:49:32;23.10;89.70
43346;DHT22;28937;51.160;4.146;2022-09-09T12:52:07;23.10;89.40
43346;DHT22;28937;51.160;4.146;2022-09-09T12:54:35;23.20;89.40
43346;DHT22;28937;51.160;4.146;2022-09-09T12:57:02;23.20;89.50
43346;DHT22;28937;51.160;4.146;2022-09-09T12:59:36;23.20;89.40
43346;DHT22;28937;51.160;4.146;2022-09-09T13:02:11;23.30;89.50
43346;DHT22;28937;51.160;4.146;2022-09-09T13:04:36;23.30;89.30
43346;DHT22;28937;51.160;4.146;2022-09-09T13:07:06;23.30;89.30
43346;DHT22;28937;51.160;4.146;2022-09-09T13:09:37;23.30;89.20
43346;DHT22;28937;51.160;4.146;2022-09-09T13:12:04;23.30;89.40
43346;DHT22;28937;51.160;4.146;2022-09-09T13:14:36;23.30;89.30
43346;DHT22;28937;51.160;4.146;2022-09-09T13:17:04;23.40;89.10
43346;DHT22;28937;51.160;4.146;2022-09-09T13:19:35;23.40;88.80
43346;DHT22;28937;51.160;4.146;2022-09-09T13:22:20;23.40;88.80
43346;DHT22;28937;51.160;4.146;2022-09-09T13:24:45;23.40;89.00
43346;DHT22;28937;51.160;4.146;2022-09-09T13:27:58;23.40;88.80
43346;DHT22;28937;51.160;4.146;2022-09-09T13:30:34;23.50;88.80
43346;DHT22;28937;51.160;4.146;2022-09-09T13:36:04;23.50;88.70
43346;DHT22;28937;51.160;4.146;2022-09-09T13:41:21;23.50;88.60
43346;DHT22;28937;51.160;4.146;2022-09-09T13:43:49;23.60;88.70
43346;DHT22;28937;51.160;4.146;2022-09-09T13:46:37;23.60;88.50
43346;DHT22;28937;51.160;4.146;2022-09-09T13:54:06;23.70;88.50
43346;DHT22;28937;51.160;4.146;2022-09-09T13:56:35;23.70;88.80
43346;DHT22;28937;51.160;4.146;2022-09-09T13:59:02;23.70;88.30
43346;DHT22;28937;51.160;4.146;2022-09-09T14:01:28;23.70;88.40
43346;DHT22;28937;51.160;4.146;2022-09-09T14:03:54;23.70;88.50
43346;DHT22;28937;51.160;4.146;2022-09-09T14:06:19;23.80;88.50
43346;DHT22;28937;51.160;4.146;2022-09-09T14:08:47;23.70;88.60
43346;DHT22;28937;51.160;4.146;2022-09-09T14:11:13;23.80;88.60
43346;DHT22;28937;51.160;4.146;2022-09-09T14:13:39;23.80;88.50
43346;DHT22;28937;51.160;4.146;2022-09-09T14:16:04;23.90;87.70
43346;DHT22;28937;51.160;4.146;2022-09-09T14:18:30;23.80;87.90
43346;DHT22;28937;51.160;4.146;2022-09-09T14:20:55;23.80;87.70
43346;DHT22;28937;51.160;4.146;2022-09-09T14:23:22;23.90;87.90
43346;DHT22;28937;51.160;4.146;2022-09-09T14:25:51;23.90;87.70
43346;DHT22;28937;51.160;4.146;2022-09-09T14:28:17;23.90;87.60
43346;DHT22;28937;51.160;4.146;2022-09-09T14:30:43;23.80;88.10
43346;DHT22;28937;51.160;4.146;2022-09-09T14:33:14;23.80;88.80
43346;DHT22;28937;51.160;4.146;2022-09-09T14:35:41;23.80;89.20
43346;DHT22;28937;51.160;4.146;2022-09-09T14:38:07;23.80;87.80
43346;DHT22;28937;51.160;4.146;2022-09-09T14:40:35;23.80;87.60
43346;DHT22;28937;51.160;4.146;2022-09-09T14:43:01;23.80;86.90
43346;DHT22;28937;51.160;4.146;2022-09-09T14:45:27;23.80;86.90
43346;DHT22;28937;51.160;4.146;2022-09-09T14:47:54;23.80;86.40
43346;DHT22;28937;51.160;4.146;2022-09-09T14:50:21;23.80;86.60
43346;DHT22;28937;51.160;4.146;2022-09-09T14:52:47;23.60;85.70
43346;DHT22;28937;51.160;4.146;2022-09-09T14:55:13;23.60;86.20
43346;DHT22;28937;51.160;4.146;2022-09-09T14:57:38;23.60;86.50
43346;DHT22;28937;51.160;4.146;2022-09-09T15:00:07;23.80;87.00
43346;DHT22;28937;51.160;4.146;2022-09-09T15:02:33;23.80;87.80
43346;DHT22;28937;51.160;4.146;2022-09-09T15:04:59;23.80;88.00
43346;DHT22;28937;51.160;4.146;2022-09-09T15:07:25;23.80;88.20
43346;DHT22;28937;51.160;4.146;2022-09-09T15:09:51;23.80;88.10
43346;DHT22;28937;51.160;4.146;2022-09-09T15:12:18;23.80;90.50
43346;DHT22;28937;51.160;4.146;2022-09-09T15:14:45;23.80;91.20
43346;DHT22;28937;51.160;4.146;2022-09-09T15:17:11;23.90;91.90
43346;DHT22;28937;51.160;4.146;2022-09-09T15:19:37;23.90;91.90
43346;DHT22;28937;51.160;4.146;2022-09-09T15:22:04;24.00;92.30
43346;DHT22;28937;51.160;4.146;2022-09-09T15:24:32;24.00;92.40
43346;DHT22;28937;51.160;4.146;2022-09-09T15:26:58;24.00;92.70
43346;DHT22;28937;51.160;4.146;2022-09-09T15:29:24;23.80;90.40
43346;DHT22;28937;51.160;4.146;2022-09-09T15:31:50;23.90;91.10
43346;DHT22;28937;51.160;4.146;2022-09-09T15:34:15;23.80;90.60
43346;DHT22;28937;51.160;4.146;2022-09-09T15:36:43;23.70;90.20
43346;DHT22;28937;51.160;4.146;2022-09-09T15:39:12;23.90;90.30
43346;DHT22;28937;51.160;4.146;2022-09-09T15:41:41;23.90;90.10
43346;DHT22;28937;51.160;4.146;2022-09-09T15:44:07;24.00;90.20
43346;DHT22;28937;51.160;4.146;2022-09-09T15:46:37;23.90;91.20
43346;DHT22;28937;51.160;4.146;2022-09-09T15:51:29;24.00;91.50
43346;DHT22;28937;51.160;4.146;2022-09-09T15:53:57;23.90;90.90
43346;DHT22;28937;51.160;4.146;2022-09-09T15:56:24;23.80;91.00
43346;DHT22;28937;51.160;4.146;2022-09-09T15:58:50;23.80;90.90
43346;DHT22;28937;51.160;4.146;2022-09-09T16:01:17;23.80;91.10
43346;DHT22;28937;51.160;4.146;2022-09-09T16:03:45;23.80;91.60
43346;DHT22;28937;51.160;4.146;2022-09-09T16:06:20;23.80;91.70
43346;DHT22;28937;51.160;4.146;2022-09-09T16:08:48;23.80;91.20
43346;DHT22;28937;51.160;4.146;2022-09-09T16:11:29;23.80;91.10
43346;DHT22;28937;51.160;4.146;2022-09-09T16:13:56;23.80;91.10
43346;DHT22;28937;51.160;4.146;2022-09-09T16:16:24;23.90;90.90
43346;DHT22;28937;51.160;4.146;2022-09-09T16:18:55;23.90;90.80
43346;DHT22;28937;51.160;4.146;2022-09-09T16:23:52;23.70;90.90
43346;DHT22;28937;51.160;4.146;2022-09-09T16:26:19;23.70;91.00
43346;DHT22;28937;51.160;4.146;2022-09-09T16:28:45;23.60;91.00
43346;DHT22;28937;51.160;4.146;2022-09-09T16:31:23;23.70;91.80
43346;DHT22;28937;51.160;4.146;2022-09-09T16:33:49;23.80;93.00
43346;DHT22;28937;51.160;4.146;2022-09-09T16:36:20;23.70;93.00
43346;DHT22;28937;51.160;4.146;2022-09-09T16:38:46;23.70;92.70
43346;DHT22;28937;51.160;4.146;2022-09-09T16:41:13;23.70;92.40
43346;DHT22;28937;51.160;4.146;2022-09-09T16:43:40;23.80;91.90
43346;DHT22;28937;51.160;4.146;2022-09-09T16:46:24;23.70;91.90
43346;DHT22;28937;51.160;4.146;2022-09-09T16:48:51;23.70;91.90
43346;DHT22;28937;51.160;4.146;2022-09-09T16:51:21;23.70;91.80
43346;DHT22;28937;51.160;4.146;2022-09-09T16:53:54;23.70;91.80
43346;DHT22;28937;51.160;4.146;2022-09-09T16:56:23;23.60;91.60
43346;DHT22;28937;51.160;4.146;2022-09-09T16:58:54;23.70;91.50
43346;DHT22;28937;51.160;4.146;2022-09-09T17:01:30;23.80;91.10
43346;DHT22;28937;51.160;4.146;2022-09-09T17:03:58;23.80;90.80
43346;DHT22;28937;51.160;4.146;2022-09-09T17:06:24;23.90;90.80
43346;DHT22;28937;51.160;4.146;2022-09-09T17:08:58;23.80;91.20
43346;DHT22;28937;51.160;4.146;2022-09-09T17:11:25;23.70;91.00
43346;DHT22;28937;51.160;4.146;2022-09-09T17:13:52;23.80;91.10
43346;DHT22;28937;51.160;4.146;2022-09-09T17:16:19;23.70;91.40
43346;DHT22;28937;51.160;4.146;2022-09-09T17:18:47;23.60;91.30
43346;DHT22;28937;51.160;4.146;2022-09-09T17:21:15;23.70;90.90
43346;DHT22;28937;51.160;4.146;2022-09-09T17:23:41;23.70;91.10
43346;DHT22;28937;51.160;4.146;2022-09-09T17:26:09;23.70;91.20
43346;DHT22;28937;51.160;4.146;2022-09-09T17:28:36;23.60;91.50
43346;DHT22;28937;51.160;4.146;2022-09-09T17:31:05;23.60;91.40
43346;DHT22;28937;51.160;4.146;2022-09-09T17:33:33;23.30;91.50
43346;DHT22;28937;51.160;4.146;2022-09-09T17:36:00;23.40;91.10
43346;DHT22;28937;51.160;4.146;2022-09-09T17:38:26;23.50;90.90
43346;DHT22;28937;51.160;4.146;2022-09-09T17:43:39;23.40;90.80
43346;DHT22;28937;51.160;4.146;2022-09-09T17:46:28;23.50;90.50